KGIF

Details ICAO KGIF (GIF)
Name Winter Havens Gilbert
Region United States
Timezone America/New_York (UTC-5.0)
Plans Departing 7
Arriving 2
Stats Elevation 145 ft / 44 m (AMSL)
Location 28.062862° -81.753430°
Runways 2
Magnetic Variation 6.065° W
Sunrise 2017-12-12 12:10:40 UTC / 2017-12-12 07:10:40 Local
Sunset 2017-12-12 22:33:54 UTC / 2017-12-12 17:33:54 Local
Advertisement - Login to hide

Runways

ID Width Length Bearing (true) Bearing (mag) Surface Threshold Offset Overrun Length
04 100 ft / 30 m 5,011 ft / 1,527 m 44.85° 50.91° Asphalt 0 ft / 0 m 0 ft / 0 m
11 100 ft / 30 m 3,996 ft / 1,218 m 103.22° 109.28° Asphalt 0 ft / 0 m 0 ft / 0 m
22 100 ft / 30 m 5,011 ft / 1,527 m 224.85° 230.91° Asphalt 0 ft / 0 m 0 ft / 0 m
29 100 ft / 30 m 3,996 ft / 1,218 m 283.23° 289.29° Asphalt 0 ft / 0 m 0 ft / 0 m

Map

Weather


0- 5 10 15 20 25 30 35+ Temperature / ° C

Clouds and Precipitation
Forecast for 2017-12-13 00:00 UTC. Updated 28 minutes ago

Ground ~20,000 ft ~40,000 ft Winds

METAR

KGIF 122253Z AUTO 27011KT 10SM CLR 19/10 A2992 RMK AO2 SLP132 T01940100

TAF

Not found

Frequencies

Recorded 133.67 MHz ASOS
Approach 120.65 MHz TAMPA APP/DEP
Unicom 123.05 MHz CTAF/UNICOM
Approach 119.90 MHz TAMPA APP/DEP
Warning: Do not use this data for real-world aviation or navigation. No guarantee of current accuracy is given.